Home > Products > Valid Products > TAF

000
FTUS43 KARX 280850 AAB
TAFRST
TAF AMD
KRST 280850Z 2809/2906 14013KT P6SM -SN OVC035
     FM281000 15013KT P6SM BKN060
     FM281500 16011KT P6SM OVC020
     FM282000 16007KT P6SM OVC020=



000
FTUS43 KARX 280850 AAB
TAFRST
TAF AMD
KRST 280850Z 2809/2906 14013KT P6SM -SN OVC035
     FM281000 15013KT P6SM BKN060
     FM281500 16011KT P6SM OVC020
     FM282000 16007KT P6SM OVC020=



000
FTUS43 KARX 280732 AAA
TAFLSE
TAF AMD
KLSE 280732Z 2808/2906 17006KT 4SM -SN BKN050
      TEMPO 2808/2810 2SM -SN BKN025
     FM281100 15009KT P6SM OVC050
     FM281800 16006KT P6SM OVC025=



000
FTUS43 KARX 280732 AAA
TAFLSE
TAF AMD
KLSE 280732Z 2808/2906 17006KT 4SM -SN BKN050
      TEMPO 2808/2810 2SM -SN BKN025
     FM281100 15009KT P6SM OVC050
     FM281800 16006KT P6SM OVC025=



000
FTUS43 KARX 280706 AAA
TAFRST
TAF AMD
KRST 280706Z 2807/2906 17010KT 3SM -SN OVC020
      TEMPO 2807/2809 1 1/2SM -SN OVC012
     FM281100 16013KT P6SM OVC040
     FM281500 16011KT P6SM OVC020
     FM282000 16007KT P6SM OVC020=



000
FTUS43 KARX 280706 AAA
TAFRST
TAF AMD
KRST 280706Z 2807/2906 17010KT 3SM -SN OVC020
      TEMPO 2807/2809 1 1/2SM -SN OVC012
     FM281100 16013KT P6SM OVC040
     FM281500 16011KT P6SM OVC020
     FM282000 16007KT P6SM OVC020=



000
FTUS43 KARX 280545 CCA
TAFRST
TAF COR
KRST 280545Z 2806/2906 17008KT 3SM -SN OVC020
      TEMPO 2806/2808 2SM -SN OVC012
     FM281100 16013KT P6SM OVC040
     FM281500 16011KT P6SM OVC020
     FM282000 16007KT P6SM OVC020=



000
FTUS43 KARX 280530
TAFLSE
TAF
KLSE 280530Z 2806/2906 17005KT P6SM BKN070
     FM280900 15006KT 3SM -SN OVC025
     FM281300 15009KT P6SM OVC050
     FM281800 16006KT P6SM OVC025=



000
FTUS43 KARX 280530
TAFRST
TAF
KRST 280530Z 2806/2906 17008KT P6SM OVC040
     FM280700 16012KT 3SM -SN OVC020
      TEMPO 2807/2809 2SM -SN OVC012
     FM281100 16013KT P6SM OVC040
     FM281500 16011KT P6SM OVC020
     FM282000 16007KT P6SM OVC020=



000
FTUS43 KARX 272330
TAFRST
TAF
KRST 272330Z 2800/2824 17005KT P6SM SCT120
     FM280400 17008KT P6SM OVC050
     FM280700 16012KT 3SM -SN OVC020
     FM281100 16014KT P6SM OVC020
     FM281800 17008KT P6SM OVC020=



000
FTUS43 KARX 272330
TAFLSE
TAF
KLSE 272330Z 2800/2824 VRB03KT P6SM SCT150
     FM280600 15005KT P6SM BKN070
     FM280900 15007KT 3SM -SN OVC025
     FM281300 15009KT P6SM OVC025=



000
FTUS43 KARX 272330
TAFLSE
TAF
KLSE 272330Z 2800/2824 VRB03KT P6SM SCT150
     FM280600 15005KT P6SM BKN070
     FM280900 15007KT 3SM -SN OVC025
     FM281300 15009KT P6SM OVC025=



000
FTUS43 KARX 272330
TAFRST
TAF
KRST 272330Z 2800/2824 17005KT P6SM SCT120
     FM280400 17008KT P6SM OVC050
     FM280700 16012KT 3SM -SN OVC020
     FM281100 16014KT P6SM OVC020
     FM281800 17008KT P6SM OVC020=



000
FTUS43 KARX 271720
TAFRST
TAF
KRST 271720Z 2718/2818 32009KT P6SM SKC
     FM272300 VRB04KT P6SM SCT100
     FM280400 17006KT P6SM OVC050
     FM280800 16012KT P6SM -SN BKN025=



000
FTUS43 KARX 271720
TAFLSE
TAF
KLSE 271720Z 2718/2818 33009KT P6SM SKC
     FM272300 VRB03KT P6SM SCT120
     FM280600 15005KT P6SM BKN070
     FM281000 15007KT P6SM -SN BKN035=



000
FTUS43 KARX 271720
TAFLSE
TAF
KLSE 271720Z 2718/2818 33009KT P6SM SKC
     FM272300 VRB03KT P6SM SCT120
     FM280600 15005KT P6SM BKN070
     FM281000 15007KT P6SM -SN BKN035=



000
FTUS43 KARX 271720
TAFRST
TAF
KRST 271720Z 2718/2818 32009KT P6SM SKC
     FM272300 VRB04KT P6SM SCT100
     FM280400 17006KT P6SM OVC050
     FM280800 16012KT P6SM -SN BKN025=



000
FTUS43 KARX 271120
TAFRST
TAF
KRST 271120Z 2712/2812 33011KT P6SM SKC
     FM271500 32008KT P6SM SKC
     FM272200 VRB04KT P6SM SCT100
     FM280400 17006KT P6SM BKN050
     FM280700 16012KT P6SM -SN BKN035=



000
FTUS43 KARX 271120
TAFLSE
TAF
KLSE 271120Z 2712/2812 34010KT P6SM SCT025
     FM271500 33008KT P6SM SKC
     FM272300 VRB03KT P6SM SCT100
     FM280500 15007KT P6SM BKN070
     FM280900 15010KT P6SM -SN BKN035=



000
FTUS43 KARX 271120
TAFLSE
TAF
KLSE 271120Z 2712/2812 34010KT P6SM SCT025
     FM271500 33008KT P6SM SKC
     FM272300 VRB03KT P6SM SCT100
     FM280500 15007KT P6SM BKN070
     FM280900 15010KT P6SM -SN BKN035=



000
FTUS43 KARX 271120
TAFRST
TAF
KRST 271120Z 2712/2812 33011KT P6SM SKC
     FM271500 32008KT P6SM SKC
     FM272200 VRB04KT P6SM SCT100
     FM280400 17006KT P6SM BKN050
     FM280700 16012KT P6SM -SN BKN035=



000
FTUS43 KARX 271016 AAA
TAFLSE
TAF AMD
KLSE 271016Z 2710/2806 34010KT P6SM SCT025
      TEMPO 2710/2711 BKN015
     FM272300 VRB03KT P6SM SKC=



000
FTUS43 KARX 271016 AAA
TAFLSE
TAF AMD
KLSE 271016Z 2710/2806 34010KT P6SM SCT025
      TEMPO 2710/2711 BKN015
     FM272300 VRB03KT P6SM SKC=



000
FTUS43 KARX 271016 AAA
TAFLSE
TAF AMD
KLSE 271016Z 2710/2806 34010KT P6SM SCT025
      TEMPO 2710/2711 BKN015
     FM272300 VRB03KT P6SM SKC=



000
FTUS43 KARX 271016 AAA
TAFLSE
TAF AMD
KLSE 271016Z 2710/2806 34010KT P6SM SCT025
      TEMPO 2710/2711 BKN015
     FM272300 VRB03KT P6SM SKC=



000
FTUS43 KARX 270820 AAA
TAFRST
TAF AMD
KRST 270820Z 2708/2806 34014KT P6SM SCT020 BKN040
      TEMPO 2708/2709 BKN025
     FM270930 34012KT P6SM SKC
     FM271500 32008KT P6SM SKC
     FM280200 17006KT P6SM SCT100=



000
FTUS43 KARX 270820 AAA
TAFRST
TAF AMD
KRST 270820Z 2708/2806 34014KT P6SM SCT020 BKN040
      TEMPO 2708/2709 BKN025
     FM270930 34012KT P6SM SKC
     FM271500 32008KT P6SM SKC
     FM280200 17006KT P6SM SCT100=



000
FTUS43 KARX 270530
TAFLSE
TAF
KLSE 270530Z 2706/2806 33010KT P6SM -SN OVC025
     FM270900 33010KT P6SM SCT025
     FM272300 VRB03KT P6SM SKC=



000
FTUS43 KARX 270530
TAFRST
TAF
KRST 270530Z 2706/2806 32012KT P6SM -SN OVC015
     FM270700 32012KT P6SM SCT020
     FM271500 32008KT P6SM SKC
     FM280200 17006KT P6SM SCT100=



000
FTUS43 KARX 270530
TAFLSE
TAF
KLSE 270530Z 2706/2806 33010KT P6SM -SN OVC025
     FM270900 33010KT P6SM SCT025
     FM272300 VRB03KT P6SM SKC=



000
FTUS43 KARX 270530
TAFRST
TAF
KRST 270530Z 2706/2806 32012KT P6SM -SN OVC015
     FM270700 32012KT P6SM SCT020
     FM271500 32008KT P6SM SKC
     FM280200 17006KT P6SM SCT100=



000
FTUS43 KARX 262331
TAFLSE
TAF
KLSE 262331Z 2700/2724 33008KT 2SM -SN OVC015
     FM270100 33007KT 3SM -SN OVC020
     FM270300 32007KT P6SM OVC020
     FM270600 32010KT P6SM OVC025
     FM271500 32009KT P6SM SCT025=



000
FTUS43 KARX 262331
TAFRST
TAF
KRST 262331Z 2700/2724 35005KT 4SM -SN OVC020
      TEMPO 2700/2702 BKN009
     FM270200 34012G18KT P6SM OVC015
     FM271300 32009KT P6SM SCT015=



000
FTUS43 KARX 262331
TAFRST
TAF
KRST 262331Z 2700/2724 35005KT 4SM -SN OVC020
      TEMPO 2700/2702 BKN009
     FM270200 34012G18KT P6SM OVC015
     FM271300 32009KT P6SM SCT015=



000
FTUS43 KARX 262331
TAFLSE
TAF
KLSE 262331Z 2700/2724 33008KT 2SM -SN OVC015
     FM270100 33007KT 3SM -SN OVC020
     FM270300 32007KT P6SM OVC020
     FM270600 32010KT P6SM OVC025
     FM271500 32009KT P6SM SCT025=



000
FTUS43 KARX 262010 AAA
TAFLSE
TAF AMD
KLSE 262010Z 2620/2718 01005KT P6SM OVC060
     FM262100 35005KT 1SM -SN OVC015
     FM270100 32010G16KT P6SM OVC020
     FM271500 32009KT P6SM SCT020=



000
FTUS43 KARX 262010 AAA
TAFLSE
TAF AMD
KLSE 262010Z 2620/2718 01005KT P6SM OVC060
     FM262100 35005KT 1SM -SN OVC015
     FM270100 32010G16KT P6SM OVC020
     FM271500 32009KT P6SM SCT020=



000
FTUS43 KARX 261720
TAFLSE
TAF
KLSE 261720Z 2618/2718 01005KT P6SM OVC060
     FM262100 35005KT 2SM -SN OVC025
     FM262300 32006KT 4SM -SN OVC025
     FM270100 32010G16KT P6SM OVC020
     FM271500 32009KT P6SM SCT020=



000
FTUS43 KARX 261720
TAFRST
TAF
KRST 261720Z 2618/2718 02010KT 1SM -SN OVC020
      TEMPO 2618/2621 3/4SM -SN OVC015
     FM262200 03008KT 3SM -SN OVC015
     FM270000 34012G18KT P6SM OVC015
     FM271300 30009KT P6SM SCT015=



000
FTUS43 KARX 261720
TAFRST
TAF
KRST 261720Z 2618/2718 02010KT 1SM -SN OVC020
      TEMPO 2618/2621 3/4SM -SN OVC015
     FM262200 03008KT 3SM -SN OVC015
     FM270000 34012G18KT P6SM OVC015
     FM271300 30009KT P6SM SCT015=



000
FTUS43 KARX 261720
TAFLSE
TAF
KLSE 261720Z 2618/2718 01005KT P6SM OVC060
     FM262100 35005KT 2SM -SN OVC025
     FM262300 32006KT 4SM -SN OVC025
     FM270100 32010G16KT P6SM OVC020
     FM271500 32009KT P6SM SCT020=



000
FTUS43 KARX 261547 AAC
TAFRST
TAF AMD
KRST 261547Z 2616/2712 08008KT 1SM -SN OVC025
     FM262100 03008KT 2SM -SN OVC015
     FM262300 34011KT P6SM -SN OVC020
     FM270600 33012KT P6SM OVC035=



000
FTUS43 KARX 261547 AAC
TAFRST
TAF AMD
KRST 261547Z 2616/2712 08008KT 1SM -SN OVC025
     FM262100 03008KT 2SM -SN OVC015
     FM262300 34011KT P6SM -SN OVC020
     FM270600 33012KT P6SM OVC035=



000
FTUS43 KARX 261429 AAB
TAFRST
TAF AMD
KRST 261429Z 2614/2712 11008KT P6SM -SN OVC035
      TEMPO 2614/2617 1SM -SN OVC025
     FM261700 06008KT 3SM -SN OVC025
     FM262100 03008KT 2SM -SN OVC015
     FM270100 34011KT P6SM -SN OVC020
     FM270600 33012KT P6SM OVC035=



000
FTUS43 KARX 261429 AAB
TAFRST
TAF AMD
KRST 261429Z 2614/2712 11008KT P6SM -SN OVC035
      TEMPO 2614/2617 1SM -SN OVC025
     FM261700 06008KT 3SM -SN OVC025
     FM262100 03008KT 2SM -SN OVC015
     FM270100 34011KT P6SM -SN OVC020
     FM270600 33012KT P6SM OVC035=



000
FTUS43 KARX 261149 AAA
TAFRST
TAF AMD
KRST 261149Z 2612/2712 12010KT P6SM OVC050
     FM261400 11008KT P6SM -SN OVC035
     FM261700 06008KT 3SM -SN OVC025
     FM262100 03008KT 2SM -SN OVC015
     FM270100 34011KT P6SM -SN OVC020
     FM270600 33012KT P6SM OVC035=



000
FTUS43 KARX 261149 AAA
TAFRST
TAF AMD
KRST 261149Z 2612/2712 12010KT P6SM OVC050
     FM261400 11008KT P6SM -SN OVC035
     FM261700 06008KT 3SM -SN OVC025
     FM262100 03008KT 2SM -SN OVC015
     FM270100 34011KT P6SM -SN OVC020
     FM270600 33012KT P6SM OVC035=



000
FTUS43 KARX 261128
TAFLSE
TAF
KLSE 261128Z 2612/2712 11005KT P6SM OVC080
     FM262100 35005KT P6SM -SN OVC050
     FM262300 32006KT 4SM -SN OVC030
     FM270300 32008KT P6SM -SN OVC025
     FM270900 32010KT P6SM OVC030=



000
FTUS43 KARX 261128
TAFRST
TAF
KRST 261128Z 2612/2712 16010KT P6SM OVC050
     FM261400 11008KT P6SM -SN OVC035
     FM261700 06008KT 3SM -SN OVC025
     FM262100 03008KT 2SM -SN OVC015
     FM270100 34011KT P6SM -SN OVC020
     FM270600 33012KT P6SM OVC035=



000
FTUS43 KARX 261128
TAFRST
TAF
KRST 261128Z 2612/2712 16010KT P6SM OVC050
     FM261400 11008KT P6SM -SN OVC035
     FM261700 06008KT 3SM -SN OVC025
     FM262100 03008KT 2SM -SN OVC015
     FM270100 34011KT P6SM -SN OVC020
     FM270600 33012KT P6SM OVC035=



000
FTUS43 KARX 261128
TAFLSE
TAF
KLSE 261128Z 2612/2712 11005KT P6SM OVC080
     FM262100 35005KT P6SM -SN OVC050
     FM262300 32006KT 4SM -SN OVC030
     FM270300 32008KT P6SM -SN OVC025
     FM270900 32010KT P6SM OVC030=



000
FTUS43 KARX 260904 AAB
TAFRST
TAF AMD
KRST 260904Z 2609/2706 16010KT P6SM OVC060
     FM261400 11008KT P6SM -SN OVC035
     FM261800 06008KT 3SM -SN OVC025
     FM261900 03008KT 2SM -SN OVC015
     FM270100 34011KT P6SM -SN OVC020=



000
FTUS43 KARX 260904 AAB
TAFRST
TAF AMD
KRST 260904Z 2609/2706 16010KT P6SM OVC060
     FM261400 11008KT P6SM -SN OVC035
     FM261800 06008KT 3SM -SN OVC025
     FM261900 03008KT 2SM -SN OVC015
     FM270100 34011KT P6SM -SN OVC020=



000
FTUS43 KARX 260758 AAA
TAFRST
TAF AMD
KRST 260758Z 2608/2706 16010KT P6SM OVC060
      TEMPO 2608/2612 2SM -SN BKN025
     FM261400 11008KT P6SM -SN OVC035
     FM261800 06008KT 3SM -SN OVC025
     FM261900 03008KT 2SM -SN OVC015
     FM270100 34011KT P6SM -SN OVC020=



000
FTUS43 KARX 260758 AAA
TAFRST
TAF AMD
KRST 260758Z 2608/2706 16010KT P6SM OVC060
      TEMPO 2608/2612 2SM -SN BKN025
     FM261400 11008KT P6SM -SN OVC035
     FM261800 06008KT 3SM -SN OVC025
     FM261900 03008KT 2SM -SN OVC015
     FM270100 34011KT P6SM -SN OVC020=



000
FTUS43 KARX 260530
TAFLSE
TAF
KLSE 260530Z 2606/2706 13005KT P6SM OVC080
     FM262000 03005KT P6SM -SN OVC050
     FM262200 36004KT 4SM -SN OVC030
     FM270300 32008KT P6SM -SN OVC030=



000
FTUS43 KARX 260530
TAFRST
TAF
KRST 260530Z 2606/2706 16010KT P6SM OVC060
     FM261400 11008KT P6SM -SN OVC035
     FM261800 06008KT 3SM -SN OVC025
     FM261900 03008KT 2SM -SN OVC015
     FM270100 34011KT P6SM -SN OVC020=



000
FTUS43 KARX 252330
TAFLSE
TAF
KLSE 252330Z 2600/2624 16005KT P6SM SCT060
     FM260300 15004KT P6SM OVC060
     FM261700 11006KT P6SM -SN OVC050
     FM262100 03004KT 4SM -SN OVC030=



000
FTUS43 KARX 252330
TAFRST
TAF
KRST 252330Z 2600/2624 17005KT P6SM SCT050
     FM260200 16009KT P6SM OVC050
     FM261200 13010KT P6SM -SN OVC025
     FM261600 10010KT 3SM -SN OVC015
     FM261800 05007KT 2SM -SN OVC012=



000
FTUS43 KARX 252330
TAFRST
TAF
KRST 252330Z 2600/2624 17005KT P6SM SCT050
     FM260200 16009KT P6SM OVC050
     FM261200 13010KT P6SM -SN OVC025
     FM261600 10010KT 3SM -SN OVC015
     FM261800 05007KT 2SM -SN OVC012=



000
FTUS43 KARX 252330
TAFLSE
TAF
KLSE 252330Z 2600/2624 16005KT P6SM SCT060
     FM260300 15004KT P6SM OVC060
     FM261700 11006KT P6SM -SN OVC050
     FM262100 03004KT 4SM -SN OVC030=



000
FTUS43 KARX 251726
TAFRST
TAF
KRST 251726Z 2518/2618 21008KT P6SM SCT050
     FM260000 17008KT P6SM BKN050
     FM260600 13010KT P6SM OVC035
     FM261200 10010KT P6SM -SN OVC025
     FM261500 09010KT 3SM -SN OVC015=



000
FTUS43 KARX 251726
TAFLSE
TAF
KLSE 251726Z 2518/2618 29007KT P6SM SCT017
     FM252000 22005KT P6SM SKC
     FM260100 14004KT P6SM OVC050
     FM261500 10005KT P6SM -SN OVC040=



000
FTUS43 KARX 251726
TAFLSE
TAF
KLSE 251726Z 2518/2618 29007KT P6SM SCT017
     FM252000 22005KT P6SM SKC
     FM260100 14004KT P6SM OVC050
     FM261500 10005KT P6SM -SN OVC040=



000
FTUS43 KARX 251726
TAFRST
TAF
KRST 251726Z 2518/2618 21008KT P6SM SCT050
     FM260000 17008KT P6SM BKN050
     FM260600 13010KT P6SM OVC035
     FM261200 10010KT P6SM -SN OVC025
     FM261500 09010KT 3SM -SN OVC015=



000
FTUS43 KARX 251430 AAB
TAFLSE
TAF AMD
KLSE 251430Z 2515/2612 29009KT P6SM OVC015
     FM251800 29007KT P6SM SCT015
     FM252000 22005KT P6SM SCT025
     FM260200 15004KT P6SM SCT025 BKN070
     FM260800 11005KT P6SM SCT025 BKN050=



000
FTUS43 KARX 251430 AAB
TAFLSE
TAF AMD
KLSE 251430Z 2515/2612 29009KT P6SM OVC015
     FM251800 29007KT P6SM SCT015
     FM252000 22005KT P6SM SCT025
     FM260200 15004KT P6SM SCT025 BKN070
     FM260800 11005KT P6SM SCT025 BKN050=



000
FTUS43 KARX 251300 AAA
TAFLSE
TAF AMD
KLSE 251300Z 2513/2612 31010KT P6SM OVC015
      TEMPO 2514/2515 SCT015
     FM251500 29007KT P6SM SCT020
     FM252000 22005KT P6SM SCT025
     FM260200 15004KT P6SM SCT025 BKN070
     FM260800 11005KT P6SM SCT025 BKN050=



000
FTUS43 KARX 251120
TAFLSE
TAF
KLSE 251120Z 2512/2612 31010KT P6SM OVC025
     FM251400 29007KT P6SM SCT025
     FM252000 22005KT P6SM SCT025
     FM260200 15004KT P6SM SCT025 BKN070
     FM260800 11005KT P6SM SCT025 BKN050=



000
FTUS43 KARX 251120
TAFRST
TAF
KRST 251120Z 2512/2612 30010KT P6SM SCT020
     FM251800 21008KT P6SM SCT020
     FM260000 17008KT P6SM SCT020 BKN060
     FM260600 13010KT P6SM BKN035=



000
FTUS43 KARX 251120
TAFRST
TAF
KRST 251120Z 2512/2612 30010KT P6SM SCT020
     FM251800 21008KT P6SM SCT020
     FM260000 17008KT P6SM SCT020 BKN060
     FM260600 13010KT P6SM BKN035=



000
FTUS43 KARX 251120
TAFLSE
TAF
KLSE 251120Z 2512/2612 31010KT P6SM OVC025
     FM251400 29007KT P6SM SCT025
     FM252000 22005KT P6SM SCT025
     FM260200 15004KT P6SM SCT025 BKN070
     FM260800 11005KT P6SM SCT025 BKN050=



    US Dept of Commerce
    National Oceanic and Atmospheric Administration
    National Weather Service
    1325 East West Highway
    Silver Spring, MD 20910
    Page Author: NWS Internet Services Team
Disclaimer
Information Quality
Credits
Glossary
Privacy Policy
Freedom of Information Act (FOIA)
About Us
Career Opportunities